MDLR/LRM METAR and TAF weather

Enter ICAO airport designator
Station Type Date Time Source
MDLR METAR 2018/12/15 23:00 UTC NOAA

MDLR 152300Z 09004KT 9999 SCT018 24/22 Q1019


Station Type Date Time Source
MDLR Decoded METAR 2018/12/15 23:00 UTC NOAA

La Romana International Airport, Dominican Republic (MDLR) 18-25N 068-57W
Dec 15, 2018 - 06:00 PM EST / 2018.12.15 2300 UTC
Wind: from the E (090 degrees) at 5 MPH (4 KT):0
Visibility: greater than 7 mile(s):0
Sky conditions: partly cloudy
Temperature: 75 F (24 C)
Dew Point: 71 F (22 C)
Relative Humidity: 88%
Pressure (altimeter): 30.09 in. Hg (1019 hPa)
ob: MDLR 152300Z 09004KT 9999 SCT018 24/22 Q1019
cycle: 23

Station Type Date Time Source
MDLR TAF 2018/12/15 18:21 UTC NOAA

TAF MDLR 151600Z 1518/1618 11015KT 9999 SCT020 PROB30 1518/1600 7000 -RA BKN016


Example: see airport list